createdAt,value
2023-01-27T00:01:50.278Z,26.07
2023-01-27T00:03:52.046Z,23.97
2023-01-27T00:05:54.029Z,29.93
2023-01-27T00:07:58.829Z,25.33
2023-01-27T00:10:01.178Z,28.50
2023-01-27T00:12:21.412Z,27.30
2023-01-27T00:14:23.654Z,29.67
2023-01-27T00:16:25.557Z,37.43
2023-01-27T00:18:27.261Z,29.20
2023-01-27T00:20:47.873Z,30.10
2023-01-27T00:23:08.111Z,28.50
2023-01-27T00:25:09.833Z,35.57
2023-01-27T00:27:12.850Z,28.80
2023-01-27T00:29:14.544Z,30.40
2023-01-27T00:31:36.393Z,33.40
2023-01-27T00:33:38.166Z,31.63
2023-01-27T00:35:39.992Z,31.90
2023-01-27T00:37:42.471Z,37.50
2023-01-27T00:39:44.186Z,30.23
2023-01-27T00:41:45.856Z,32.43
2023-01-27T00:43:49.213Z,29.43
2023-01-27T00:45:51.216Z,28.90
2023-01-27T00:47:53.465Z,30.17
2023-01-27T00:49:55.154Z,27.50
2023-01-27T00:51:56.864Z,32.50
2023-01-27T00:53:59.413Z,33.73
2023-01-27T00:56:01.590Z,34.30
2023-01-27T00:58:03.253Z,33.83
2023-01-27T01:00:06.455Z,26.97
2023-01-27T01:02:08.129Z,25.63
2023-01-27T01:04:10.108Z,33.40
2023-01-27T01:06:14.363Z,28.80
2023-01-27T01:08:16.373Z,26.47
2023-01-27T01:10:18.348Z,27.90
2023-01-27T01:12:20.272Z,27.03
2023-01-27T01:14:23.599Z,27.47
2023-01-27T01:16:26.159Z,32.50
2023-01-27T01:18:27.926Z,28.30
2023-01-27T01:20:29.783Z,30.67
2023-01-27T01:22:31.510Z,29.93
2023-01-27T01:24:33.338Z,28.60
2023-01-27T01:26:35.344Z,28.20
2023-01-27T01:28:37.198Z,26.63
2023-01-27T01:30:39.077Z,26.80
2023-01-27T01:32:40.962Z,26.57
2023-01-27T01:34:43.819Z,27.43
2023-01-27T09:12:08.485Z,18.63
2023-01-27T09:14:12.242Z,19.83
2023-01-27T09:16:14.076Z,16.90
2023-01-27T09:18:15.726Z,16.70
2023-01-27T09:20:17.543Z,17.77
2023-01-27T09:22:19.663Z,16.33
2023-01-27T09:24:21.674Z,15.97
2023-01-27T09:26:23.436Z,16.83
2023-01-27T09:28:25.229Z,18.50
2023-01-27T09:30:28.987Z,16.83
2023-01-27T09:32:30.646Z,16.70
2023-01-27T09:34:32.703Z,14.63
2023-01-27T09:36:40.594Z,17.57
2023-01-27T09:39:04.309Z,15.67
2023-01-27T09:41:34.199Z,14.63
2023-01-27T09:43:47.369Z,15.43
2023-01-27T09:46:10.800Z,13.57
2023-01-27T09:48:43.909Z,18.40
2023-01-27T09:51:13.034Z,17.97
2023-01-27T09:53:33.309Z,13.40
2023-01-27T09:55:57.319Z,13.80
2023-01-27T09:58:04.995Z,12.67
2023-01-27T10:00:18.986Z,15.30
2023-01-27T10:02:30.514Z,12.33
2023-01-27T10:04:49.186Z,11.70
2023-01-27T10:07:17.867Z,13.40
2023-01-27T10:09:19.564Z,14.60
2023-01-27T10:11:39.082Z,12.50
2023-01-27T10:14:03.681Z,11.43
2023-01-27T10:16:20.266Z,11.57
2023-01-27T10:18:27.548Z,12.40
2023-01-27T10:20:46.292Z,11.20
2023-01-27T10:22:54.120Z,11.60
2023-01-27T10:25:15.999Z,10.80
2023-01-27T10:27:23.184Z,11.90
2023-01-27T10:29:40.115Z,11.80
2023-01-27T10:32:04.974Z,11.80
2023-01-27T10:34:20.496Z,11.03
2023-01-27T10:36:35.590Z,12.23
2023-01-27T10:38:52.424Z,11.60
2023-01-27T10:40:57.073Z,11.30
2023-01-27T10:43:11.883Z,14.57
2023-01-27T10:45:23.353Z,11.20
2023-01-27T10:47:25.027Z,9.90
2023-01-27T10:49:38.913Z,10.47
2023-01-27T10:51:53.924Z,13.47
2023-01-27T10:54:21.745Z,12.57
2023-01-27T10:56:38.774Z,12.23
2023-01-27T10:58:55.390Z,10.33
2023-01-27T11:01:19.965Z,14.97
2023-01-27T11:03:35.045Z,10.10
2023-01-27T11:05:45.112Z,11.80
2023-01-27T11:07:53.928Z,8.37
2023-01-27T11:09:59.415Z,9.20
2023-01-27T11:12:05.974Z,9.87
2023-01-27T11:14:32.286Z,9.70
2023-01-27T11:16:38.314Z,14.40
2023-01-27T11:18:43.341Z,11.77
2023-01-27T11:20:48.095Z,9.73
2023-01-27T11:22:54.069Z,7.90
2023-01-27T11:25:05.027Z,8.30
2023-01-27T11:27:23.849Z,9.40
2023-01-27T11:29:37.680Z,8.50
2023-01-27T11:32:01.510Z,8.37
2023-01-27T11:34:21.716Z,9.30
2023-01-27T11:36:24.046Z,10.00
2023-01-27T11:38:26.033Z,10.20
2023-01-27T11:40:38.490Z,10.53
2023-01-27T11:42:40.417Z,10.80
2023-01-27T11:44:44.187Z,9.83
2023-01-27T11:46:47.174Z,8.10
2023-01-27T11:48:53.322Z,10.07
2023-01-27T11:50:55.036Z,11.90
2023-01-27T11:53:25.358Z,10.70
2023-01-27T11:55:33.951Z,10.80
2023-01-27T11:57:38.305Z,10.40
2023-01-27T11:59:41.717Z,10.93
2023-01-27T12:01:52.673Z,12.20
2023-01-27T12:04:02.438Z,11.80
2023-01-27T12:06:15.574Z,12.40
2023-01-27T12:08:46.116Z,12.43
2023-01-27T12:10:47.777Z,13.90
2023-01-27T12:12:49.545Z,13.00
2023-01-27T12:14:56.972Z,11.73
2023-01-27T12:17:03.649Z,11.27
2023-01-27T12:19:22.006Z,13.00
2023-01-27T12:21:37.290Z,12.27
2023-01-27T12:23:55.528Z,12.17
2023-01-27T12:26:03.716Z,12.50
2023-01-27T12:28:05.632Z,12.97
2023-01-27T12:30:18.127Z,11.97
2023-01-27T12:32:43.130Z,12.43
2023-01-27T12:34:49.276Z,12.70
2023-01-27T12:36:52.176Z,12.53
2023-01-27T12:38:58.054Z,13.80
2023-01-27T12:41:02.721Z,13.80
2023-01-27T12:43:20.286Z,12.90
2023-01-27T12:45:38.771Z,12.67
2023-01-27T12:47:40.547Z,14.17
2023-01-27T12:49:45.242Z,14.00
2023-01-27T12:51:56.329Z,16.00
2023-01-27T12:54:17.111Z,14.77
2023-01-27T12:56:23.724Z,17.20
2023-01-27T12:58:29.984Z,14.20
2023-01-27T13:00:33.057Z,17.70
2023-01-27T13:02:36.351Z,17.03
2023-01-27T13:04:38.784Z,16.80
2023-01-27T13:07:13.684Z,15.97
2023-01-27T13:09:35.417Z,17.27
2023-01-27T13:11:40.354Z,18.70
2023-01-27T13:13:51.020Z,19.40
2023-01-27T13:16:16.798Z,16.90
2023-01-27T13:18:23.420Z,18.97
2023-01-27T13:20:35.123Z,19.93
2023-01-27T13:22:43.676Z,18.83
2023-01-27T13:24:47.452Z,18.23
2023-01-27T13:26:51.743Z,19.03
2023-01-27T13:29:09.084Z,18.63
2023-01-27T13:31:17.332Z,17.50
2023-01-27T13:33:48.022Z,17.87
2023-01-27T13:36:00.157Z,20.47
2023-01-27T13:38:26.713Z,19.50
2023-01-27T13:40:37.076Z,21.43
2023-01-27T13:42:44.648Z,19.97
2023-01-27T13:45:09.839Z,19.90
2023-01-27T13:47:18.964Z,19.83
2023-01-27T13:49:29.535Z,19.13
2023-01-27T13:51:33.173Z,19.97
2023-01-27T13:53:35.502Z,18.70
2023-01-27T13:55:49.300Z,18.70
2023-01-27T13:58:00.695Z,18.77
2023-01-27T14:00:06.086Z,17.17
2023-01-27T14:02:19.862Z,17.17
2023-01-27T14:04:39.696Z,17.63
2023-01-27T14:06:47.286Z,17.60
2023-01-27T14:09:28.082Z,18.73
2023-01-27T14:11:58.123Z,17.70
2023-01-27T14:14:21.425Z,18.10
2023-01-27T14:16:31.935Z,16.97
2023-01-27T14:18:51.883Z,15.80
2023-01-27T14:20:53.785Z,16.63
2023-01-27T14:23:20.609Z,17.67
2023-01-27T14:25:31.557Z,17.50
2023-01-27T14:27:46.136Z,15.70
2023-01-27T14:30:18.787Z,17.27
2023-01-27T14:32:38.584Z,15.67
2023-01-27T14:34:54.477Z,15.97
2023-01-27T14:37:24.011Z,16.20
2023-01-27T14:40:00.338Z,16.00
2023-01-27T14:42:24.488Z,16.30
2023-01-27T14:44:38.400Z,15.40
2023-01-27T14:46:57.670Z,15.60
2023-01-27T14:49:11.651Z,13.57
2023-01-27T14:51:19.385Z,14.20
2023-01-27T14:53:45.108Z,15.67
2023-01-27T14:56:11.962Z,15.37
2023-01-27T14:58:35.200Z,15.87
2023-01-27T15:01:12.334Z,12.77
2023-01-27T15:03:33.353Z,13.07
2023-01-27T15:05:43.483Z,13.37
2023-01-27T15:08:14.113Z,14.10
2023-01-27T15:10:18.633Z,13.87
2023-01-27T15:12:47.290Z,14.20
2023-01-27T15:15:10.807Z,14.37
2023-01-27T15:17:30.570Z,14.10
2023-01-27T15:19:38.143Z,12.93
2023-01-27T15:21:58.103Z,13.27
2023-01-27T15:24:25.854Z,12.40
2023-01-27T15:26:29.657Z,13.60
2023-01-27T15:28:33.873Z,14.70
2023-01-27T15:30:38.071Z,13.00
2023-01-27T15:32:39.815Z,12.33
2023-01-27T15:34:44.445Z,13.23
2023-01-27T15:37:24.015Z,12.60
2023-01-27T15:39:40.317Z,13.60
2023-01-27T15:41:52.336Z,13.87
2023-01-27T15:44:04.728Z,12.93
2023-01-27T15:46:32.005Z,14.87
2023-01-27T15:48:38.242Z,13.60
2023-01-27T15:51:06.095Z,14.83
2023-01-27T15:53:16.679Z,14.90
2023-01-27T15:55:47.519Z,26.77
2023-01-27T15:57:54.157Z,46.40
2023-01-27T16:00:04.300Z,34.70
2023-01-27T16:02:29.755Z,22.27
2023-01-27T16:04:36.649Z,20.33
2023-01-27T16:06:52.016Z,14.70
2023-01-27T16:08:59.162Z,19.27
2023-01-27T16:11:23.881Z,17.10
2023-01-27T16:13:25.542Z,16.60
2023-01-27T16:15:29.963Z,15.67
2023-01-27T16:17:33.105Z,16.00
2023-01-27T16:19:42.824Z,15.53
2023-01-27T16:21:53.027Z,15.00
2023-01-27T16:24:03.519Z,15.80
2023-01-27T16:26:24.175Z,14.00
2023-01-27T16:28:29.065Z,14.73
2023-01-27T16:30:47.839Z,13.53
2023-01-27T16:33:18.242Z,13.87
2023-01-27T16:35:22.125Z,13.43
2023-01-27T16:37:32.713Z,13.03
2023-01-27T16:40:09.314Z,12.53
2023-01-27T16:42:15.583Z,12.70
2023-01-27T16:44:22.177Z,13.43
2023-01-27T16:46:37.655Z,18.43
2023-01-27T16:48:44.604Z,17.90
2023-01-27T16:50:46.415Z,15.20
2023-01-27T16:52:48.378Z,16.43
